createdAt,value
2022-12-08T00:04:55.982Z,101135.50
2022-12-08T00:10:47.188Z,101125.75
2022-12-08T00:16:02.348Z,101119.34
2022-12-08T00:21:24.161Z,101098.78
2022-12-08T00:26:46.126Z,101081.56
2022-12-08T00:32:07.859Z,101078.19
2022-12-08T00:37:29.695Z,101082.03
2022-12-08T00:42:51.349Z,101074.19
2022-12-08T00:48:13.018Z,101076.38
2022-12-08T00:53:34.701Z,101070.22
2022-12-08T00:58:56.471Z,101068.53
2022-12-08T01:04:19.645Z,101065.16
2022-12-08T01:09:41.329Z,101065.63
2022-12-08T01:15:03.147Z,101055.41
2022-12-08T01:20:24.975Z,101051.78
2022-12-08T01:25:46.794Z,101047.59
2022-12-08T01:31:19.716Z,101040.97
2022-12-08T01:36:42.382Z,101040.63
2022-12-08T01:42:04.188Z,101044.47
2022-12-08T01:47:30.381Z,101049.13
2022-12-08T01:53:06.074Z,101033.59
2022-12-08T01:58:34.751Z,101032.41
2022-12-08T02:04:02.273Z,101024.94
2022-12-08T02:09:24.696Z,101021.56
2022-12-08T02:14:46.403Z,101017.38
2022-12-08T02:20:53.539Z,101018.44
2022-12-08T02:26:33.638Z,101020.59
2022-12-08T02:32:22.870Z,101021.47
2022-12-08T02:37:55.758Z,101018.91
2022-12-08T02:43:26.180Z,101004.25
2022-12-08T02:48:48.581Z,101000.03
2022-12-08T02:54:10.654Z,100991.97
2022-12-08T03:00:06.063Z,100984.28
2022-12-08T03:06:05.795Z,100972.84
2022-12-08T03:11:40.240Z,100971.97
2022-12-08T03:17:03.009Z,100970.53
2022-12-08T03:22:27.383Z,100954.19
2022-12-08T03:27:50.891Z,100946.13
2022-12-08T03:33:22.107Z,100946.97
2022-12-08T03:38:46.269Z,100951.91
2022-12-08T03:44:07.949Z,100947.41
2022-12-08T03:49:29.620Z,100951.25
2022-12-08T03:54:51.336Z,100939.59
2022-12-08T04:00:15.949Z,100927.44
2022-12-08T04:05:37.646Z,100924.06
2022-12-08T04:10:59.313Z,100917.09
2022-12-08T04:16:24.076Z,100917.97
2022-12-08T04:21:46.580Z,100917.34
2022-12-08T04:27:08.309Z,100916.28
2022-12-08T04:32:29.976Z,100908.19
2022-12-08T04:37:52.153Z,100916.75
2022-12-08T04:43:13.832Z,100902.91
2022-12-08T04:48:37.798Z,100901.22
2022-12-08T04:53:59.465Z,100910.59
2022-12-08T04:59:21.093Z,100910.59
2022-12-08T05:04:42.782Z,100911.69
2022-12-08T05:10:05.387Z,100903.63
2022-12-08T05:15:27.426Z,100913.84
2022-12-08T05:20:49.110Z,100917.69
2022-12-08T05:26:10.752Z,100909.63
2022-12-08T05:31:32.563Z,100894.97
2022-12-08T05:36:54.632Z,100879.47
2022-12-08T05:42:20.466Z,100877.53
2022-12-08T05:47:45.465Z,100866.94
2022-12-08T05:53:07.120Z,100868.88
2022-12-08T05:58:28.811Z,100869.94
2022-12-08T06:03:51.298Z,100876.31
2022-12-08T06:09:13.240Z,100869.94
2022-12-08T06:14:34.901Z,100866.09
2022-12-08T06:19:56.633Z,100857.22
2022-12-08T06:25:18.366Z,100863.34
2022-12-08T06:30:40.019Z,100849.78
2022-12-08T06:36:01.731Z,100844.00
2022-12-08T06:41:24.321Z,100844.00
2022-12-08T06:46:46.002Z,100842.31
2022-12-08T06:52:07.724Z,100843.38
2022-12-08T06:57:29.467Z,100843.38
2022-12-08T07:02:51.428Z,100846.16
2022-12-08T07:08:13.236Z,100850.00
2022-12-08T07:13:34.972Z,100858.53
2022-12-08T07:18:56.706Z,100846.63
2022-12-08T07:24:18.756Z,100851.53
2022-12-08T07:29:40.525Z,100849.03
2022-12-08T07:35:02.233Z,100842.66
2022-12-08T07:40:24.092Z,100848.41
2022-12-08T07:45:46.042Z,100840.38
2022-12-08T07:51:07.790Z,100843.38
2022-12-08T07:56:29.508Z,100835.91
2022-12-08T08:02:13.090Z,100849.13
2022-12-08T08:07:33.413Z,100850.22
2022-12-08T08:12:55.116Z,100845.75
2022-12-08T08:18:16.980Z,100837.47
2022-12-08T08:23:38.694Z,100841.31
2022-12-08T08:29:00.439Z,100844.06
2022-12-08T08:34:22.152Z,100846.00
2022-12-08T08:39:43.974Z,100836.84
2022-12-08T08:45:06.093Z,100834.94
2022-12-08T08:50:32.860Z,100820.88
2022-12-08T08:55:57.648Z,100813.66
2022-12-08T09:01:24.308Z,100815.34
2022-12-08T09:06:46.305Z,100818.72
2022-12-08T09:12:08.542Z,100830.13
2022-12-08T09:17:30.396Z,100829.31
2022-12-08T09:22:52.143Z,100825.94
2022-12-08T09:28:14.759Z,100828.09
2022-12-08T09:33:36.498Z,100823.03
2022-12-08T09:38:58.527Z,100817.50
2022-12-08T09:44:42.187Z,100811.16
2022-12-08T09:50:11.820Z,100813.56
2022-12-08T09:55:45.514Z,100811.41
2022-12-08T10:01:10.974Z,100803.59
2022-12-08T10:06:46.732Z,100800.22
2022-12-08T10:12:21.400Z,100796.84
2022-12-08T10:17:49.704Z,100793.84
2022-12-08T10:23:39.075Z,100793.84
2022-12-08T10:29:02.994Z,100782.19
2022-12-08T10:34:25.222Z,100774.72
2022-12-08T10:39:47.068Z,100778.34
2022-12-08T10:45:08.758Z,100778.34
2022-12-08T10:50:35.712Z,100775.34
2022-12-08T10:56:03.309Z,100772.56
2022-12-08T11:01:28.239Z,100761.16
2022-12-08T11:06:51.372Z,100760.31
2022-12-08T11:12:17.882Z,100759.47
2022-12-08T11:17:39.710Z,100756.97
2022-12-08T11:23:01.464Z,100754.19
2022-12-08T11:28:25.066Z,100750.56
2022-12-08T11:33:47.629Z,100743.38
2022-12-08T11:39:12.676Z,100733.38
2022-12-08T11:44:57.882Z,100729.78
2022-12-08T11:50:30.006Z,100724.28
2022-12-08T11:55:58.670Z,100718.97
2022-12-08T12:01:23.558Z,100710.94
2022-12-08T12:07:12.668Z,100717.06
2022-12-08T12:12:39.424Z,100705.66
2022-12-08T12:18:41.021Z,100706.47
2022-12-08T12:24:20.865Z,100712.00
2022-12-08T12:29:55.524Z,100710.31
2022-12-08T12:35:34.722Z,100711.19
2022-12-08T12:41:03.048Z,100694.00
2022-12-08T12:46:27.328Z,100686.78
2022-12-08T12:51:54.792Z,100685.69
2022-12-08T12:57:22.651Z,100686.78
2022-12-08T13:02:44.460Z,100693.38
2022-12-08T13:08:24.577Z,100695.91
2022-12-08T13:13:56.916Z,100685.09
2022-12-08T13:19:18.657Z,100678.97
2022-12-08T13:24:40.344Z,100685.56
2022-12-08T13:30:39.319Z,100690.88
2022-12-08T13:36:10.880Z,100674.78
2022-12-08T13:41:41.817Z,100666.47
2022-12-08T13:59:30.494Z,100650.97
2022-12-08T14:10:34.816Z,100668.88
2022-12-08T14:15:56.632Z,100679.94
2022-12-08T14:21:21.092Z,100673.56
2022-12-08T14:26:47.655Z,100670.78
2022-12-08T14:32:26.249Z,100671.66
2022-12-08T14:37:50.452Z,100668.50
2022-12-08T14:43:14.961Z,100655.81
2022-12-08T14:48:36.639Z,100664.91
2022-12-08T14:54:09.584Z,100661.91
2022-12-08T14:59:35.859Z,100666.84
2022-12-08T15:05:04.901Z,100655.81
2022-12-08T15:10:29.676Z,100670.69
2022-12-08T15:15:56.530Z,100670.69
2022-12-08T15:21:18.341Z,100685.59
2022-12-08T15:26:48.382Z,100692.78
2022-12-08T15:32:11.628Z,100675.59
2022-12-08T15:37:33.980Z,100675.81
2022-12-08T15:42:55.758Z,100669.47
2022-12-08T15:48:22.874Z,100670.31
2022-12-08T15:53:44.733Z,100669.72
2022-12-08T15:59:06.432Z,100668.00
2022-12-08T16:05:17.893Z,100668.84
2022-12-08T16:10:22.655Z,100673.31
2022-12-08T16:15:55.080Z,100671.00
2022-12-08T16:21:53.442Z,100659.94
2022-12-08T16:27:58.738Z,100651.66
2022-12-08T16:32:44.366Z,100650.84
2022-12-08T16:38:06.238Z,100649.97
2022-12-08T16:43:27.872Z,100655.50
2022-12-08T16:48:50.539Z,100657.09
2022-12-08T16:54:12.341Z,100654.34
2022-12-08T16:59:34.137Z,100655.78
2022-12-08T17:04:55.872Z,100635.63
2022-12-08T17:10:20.773Z,100641.00
2022-12-08T17:15:42.500Z,100650.81
2022-12-08T17:21:10.452Z,100651.72
2022-12-08T17:26:32.228Z,100658.44
2022-12-08T17:31:54.231Z,100650.31
2022-12-08T17:37:17.171Z,100647.91
2022-12-08T17:42:39.274Z,100648.81
2022-12-08T17:48:00.960Z,100635.81
2022-12-08T17:53:23.293Z,100623.44
2022-12-08T17:58:47.577Z,100629.06
2022-12-08T18:04:13.225Z,100627.72
2022-12-08T18:09:34.968Z,100620.19
2022-12-08T18:14:56.887Z,100622.44
2022-12-08T18:20:18.681Z,100625.06
2022-12-08T18:25:40.422Z,100624.25
2022-12-08T18:31:02.170Z,100629.22
2022-12-08T18:36:25.805Z,100633.19
2022-12-08T18:41:47.485Z,100626.16
2022-12-08T18:47:09.208Z,100629.63
2022-12-08T18:52:32.235Z,100634.47
2022-12-08T18:57:54.501Z,100628.19
2022-12-08T19:03:16.176Z,100624.91
2022-12-08T19:08:38.061Z,100622.22
2022-12-08T19:13:59.884Z,100623.31
2022-12-08T19:19:21.775Z,100623.25
2022-12-08T19:24:44.124Z,100625.91
2022-12-08T19:30:06.789Z,100626.63
2022-12-08T19:35:28.666Z,100617.38
2022-12-08T19:41:08.561Z,100607.00
2022-12-08T19:46:32.639Z,100609.91
2022-12-08T19:51:56.357Z,100608.19
2022-12-08T19:57:18.089Z,100605.22
2022-12-08T20:02:39.886Z,100615.91
2022-12-08T20:08:01.762Z,100618.72
2022-12-08T20:13:41.580Z,100601.25
2022-12-08T20:19:03.722Z,100611.69
2022-12-08T20:24:25.417Z,100607.72
2022-12-08T20:29:47.083Z,100614.81
2022-12-08T20:35:09.317Z,100605.28
2022-12-08T20:40:31.202Z,100617.72
2022-12-08T20:45:52.923Z,100613.56
2022-12-08T20:51:17.110Z,100620.16
2022-12-08T20:56:44.772Z,100611.75
2022-12-08T21:02:13.452Z,100615.72
2022-12-08T21:07:35.479Z,100623.94
2022-12-08T21:12:57.270Z,100632.34
2022-12-08T21:18:19.994Z,100641.81
2022-12-08T21:23:42.799Z,100631.19
2022-12-08T21:29:05.153Z,100638.00
2022-12-08T21:34:31.953Z,100638.72
2022-12-08T21:39:53.781Z,100636.34
2022-12-08T21:45:18.130Z,100633.97
2022-12-08T21:50:40.034Z,100625.56
2022-12-08T21:56:01.812Z,100617.31
2022-12-08T22:01:23.616Z,100619.94
2022-12-08T22:06:45.972Z,100623.44
2022-12-08T22:18:31.352Z,100616.75
2022-12-08T22:23:53.099Z,100617.13
2022-12-08T22:29:14.867Z,100618.13
2022-12-08T22:34:36.761Z,100618.22
2022-12-08T22:39:58.587Z,100606.47
2022-12-08T22:45:20.217Z,100602.78
2022-12-08T22:50:42.399Z,100604.06
2022-12-08T22:56:05.527Z,100610.34
2022-12-08T23:01:30.203Z,100613.28
2022-12-08T23:06:52.093Z,100594.91
2022-12-08T23:12:14.055Z,100594.84
2022-12-08T23:17:36.176Z,100593.34
2022-12-08T23:22:58.312Z,100584.94
2022-12-08T23:28:20.182Z,100599.28
2022-12-08T23:33:42.174Z,100594.50
2022-12-08T23:39:05.093Z,100597.22
2022-12-08T23:44:26.943Z,100581.56
2022-12-08T23:49:48.836Z,100587.03
2022-12-08T23:55:11.294Z,100586.97
